createdAt,value
2018-01-27T00:00:05.692Z,9.97
2018-01-27T00:00:29.727Z,9.97
2018-01-27T00:00:53.789Z,9.97
2018-01-27T00:01:17.663Z,9.97
2018-01-27T00:01:41.681Z,9.97
2018-01-27T00:02:05.739Z,9.97
2018-01-27T00:02:29.821Z,9.97
2018-01-27T00:02:53.610Z,9.97
2018-01-27T00:03:17.667Z,9.97
2018-01-27T00:03:41.696Z,9.97
2018-01-27T00:04:05.177Z,9.97
2018-01-27T00:04:28.934Z,9.97
2018-01-27T00:04:52.311Z,9.97
2018-01-27T00:05:16.081Z,9.98
2018-01-27T00:05:39.819Z,9.97
2018-01-27T00:06:03.623Z,9.98
2018-01-27T00:06:27.379Z,9.97
2018-01-27T00:06:50.827Z,9.98
2018-01-27T00:07:14.580Z,9.99
2018-01-27T00:07:38.331Z,9.99
2018-01-27T00:08:02.064Z,9.99
2018-01-27T00:08:25.796Z,9.99
2018-01-27T00:08:49.561Z,9.99
2018-01-27T00:09:12.763Z,9.99
2018-01-27T00:09:36.532Z,10.00
2018-01-27T00:10:00.291Z,10.00
2018-01-27T00:10:23.743Z,10.01
2018-01-27T00:10:47.508Z,10.01
2018-01-27T00:11:11.298Z,10.00
2018-01-27T00:11:35.325Z,10.01
2018-01-27T00:11:59.394Z,10.01
2018-01-27T00:12:23.023Z,10.01
2018-01-27T00:12:46.451Z,10.01
2018-01-27T00:13:10.233Z,10.01
2018-01-27T00:13:34.267Z,10.01
2018-01-27T00:13:58.308Z,10.02
2018-01-27T00:14:21.572Z,10.01
2018-01-27T00:14:45.133Z,10.01
2018-01-27T00:15:08.393Z,10.01
2018-01-27T00:15:31.947Z,10.01
2018-01-27T00:15:55.487Z,10.01
2018-01-27T00:16:19.275Z,10.02
2018-01-27T00:16:43.019Z,10.02
2018-01-27T00:17:07.108Z,10.02
2018-01-27T00:17:31.169Z,10.03
2018-01-27T00:17:54.628Z,10.02
2018-01-27T00:18:18.372Z,10.03
2018-01-27T00:18:42.130Z,10.03
2018-01-27T00:19:05.980Z,10.03
2018-01-27T00:19:30.021Z,10.03
2018-01-27T00:19:53.881Z,10.03
2018-01-27T00:20:17.023Z,10.03
2018-01-27T00:20:40.891Z,10.03
2018-01-27T00:21:04.343Z,10.03
2018-01-27T00:21:28.173Z,10.03
2018-01-27T00:21:51.931Z,10.04
2018-01-27T00:22:15.970Z,10.04
2018-01-27T00:22:51.218Z,10.04
2018-01-27T00:23:15.008Z,10.03
2018-01-27T00:23:38.762Z,10.04
2018-01-27T00:24:02.238Z,10.04
2018-01-27T00:24:25.988Z,10.04
2018-01-27T00:24:49.736Z,10.03
2018-01-27T00:25:13.771Z,10.04
2018-01-27T00:25:37.836Z,10.04
2018-01-27T00:26:02.009Z,10.04
2018-01-27T00:26:26.069Z,10.04
2018-01-27T00:26:49.903Z,10.04
2018-01-27T00:27:13.688Z,10.05
2018-01-27T00:27:37.746Z,10.05
2018-01-27T00:28:01.849Z,10.04
2018-01-27T00:28:25.595Z,10.04
2018-01-27T00:28:49.058Z,10.05
2018-01-27T00:29:12.820Z,10.05
2018-01-27T00:29:36.559Z,10.05
2018-01-27T00:30:00.025Z,10.05
2018-01-27T00:30:23.792Z,10.05
2018-01-27T00:30:47.628Z,10.06
2018-01-27T00:31:11.730Z,10.05
2018-01-27T00:31:35.472Z,10.06
2018-01-27T00:31:58.964Z,10.05
2018-01-27T00:32:22.732Z,10.06
2018-01-27T00:32:46.518Z,10.06
2018-01-27T00:33:10.551Z,10.05
2018-01-27T00:33:34.680Z,10.05
2018-01-27T00:33:58.455Z,10.06
2018-01-27T00:34:22.503Z,10.06
2018-01-27T00:34:45.963Z,10.06
2018-01-27T00:35:09.711Z,10.06
2018-01-27T00:35:33.466Z,10.06
2018-01-27T00:35:57.223Z,10.06
2018-01-27T00:36:20.679Z,10.07
2018-01-27T00:36:44.431Z,10.06
2018-01-27T00:37:08.250Z,10.06
2018-01-27T00:37:32.282Z,10.06
2018-01-27T00:37:56.312Z,10.06
2018-01-27T00:38:20.350Z,10.06
2018-01-27T00:38:44.113Z,10.06
2018-01-27T00:39:07.571Z,10.06
2018-01-27T00:39:31.312Z,10.06
2018-01-27T00:39:55.069Z,10.07
2018-01-27T00:40:18.517Z,10.06
2018-01-27T00:40:42.268Z,10.06
2018-01-27T00:41:06.044Z,10.06
2018-01-27T00:41:30.131Z,10.06
2018-01-27T00:41:53.578Z,10.07
2018-01-27T00:42:17.410Z,10.07
2018-01-27T00:42:41.196Z,10.07
2018-01-27T00:43:04.609Z,10.07
2018-01-27T00:43:28.354Z,10.08
2018-01-27T00:43:52.104Z,10.08
2018-01-27T00:44:15.847Z,10.08
2018-01-27T00:44:39.335Z,10.08
2018-01-27T00:45:03.069Z,10.08
2018-01-27T00:45:26.815Z,10.08
2018-01-27T00:45:50.860Z,10.08
2018-01-27T00:46:14.902Z,10.08
2018-01-27T00:46:38.708Z,10.08
2018-01-27T00:47:02.311Z,10.08
2018-01-27T00:47:26.145Z,10.08
2018-01-27T00:47:49.895Z,10.07
2018-01-27T00:48:13.677Z,10.08
2018-01-27T00:48:37.717Z,10.08
2018-01-27T00:49:01.739Z,10.08
2018-01-27T00:49:24.851Z,10.07
2018-01-27T00:49:48.614Z,10.07
2018-01-27T00:50:12.712Z,10.07
2018-01-27T00:50:36.507Z,10.06
2018-01-27T00:51:00.015Z,10.06
2018-01-27T00:51:23.778Z,10.06
2018-01-27T00:51:47.534Z,10.07
2018-01-27T00:52:11.571Z,10.07
2018-01-27T00:52:35.627Z,10.07
2018-01-27T00:52:59.433Z,10.07
2018-01-27T00:53:23.476Z,10.07
2018-01-27T00:53:46.981Z,10.08
2018-01-27T00:54:10.398Z,10.07
2018-01-27T00:54:34.466Z,10.07
2018-01-27T00:54:58.224Z,10.07
2018-01-27T00:55:21.943Z,10.07
2018-01-27T00:55:45.703Z,10.08
2018-01-27T00:56:09.458Z,10.08
2018-01-27T00:56:33.220Z,10.08
2018-01-27T00:56:57.259Z,10.09
2018-01-27T00:57:21.303Z,10.08
2018-01-27T00:57:44.814Z,10.09
2018-01-27T00:58:08.554Z,10.08
2018-01-27T00:58:32.295Z,10.08
2018-01-27T00:58:56.043Z,10.08
2018-01-27T00:59:19.487Z,10.07
2018-01-27T00:59:43.238Z,10.07
2018-01-27T01:00:07.003Z,10.07
2018-01-27T01:00:30.511Z,10.06
2018-01-27T01:00:54.264Z,10.07
2018-01-27T01:01:17.999Z,10.06
2018-01-27T01:01:42.056Z,10.07
2018-01-27T01:02:06.075Z,10.06
2018-01-27T01:02:29.833Z,10.06
2018-01-27T01:02:53.625Z,10.05
2018-01-27T01:03:17.130Z,10.06
2018-01-27T01:03:40.877Z,10.05
2018-01-27T01:04:04.911Z,10.05
2018-01-27T01:04:29.043Z,10.04
2018-01-27T01:04:52.791Z,10.05
2018-01-27T01:05:16.843Z,10.05
2018-01-27T01:05:40.890Z,10.05
2018-01-27T01:06:04.620Z,10.04
2018-01-27T01:06:28.359Z,10.04
2018-01-27T01:06:52.107Z,10.04
2018-01-27T01:07:15.864Z,10.04
2018-01-27T01:07:39.632Z,10.04
2018-01-27T01:08:03.178Z,10.03
2018-01-27T01:08:26.921Z,10.03
2018-01-27T01:08:50.673Z,10.03
2018-01-27T01:09:14.722Z,10.03
2018-01-27T01:09:38.554Z,10.03
2018-01-27T01:10:02.031Z,10.03
2018-01-27T01:10:25.804Z,10.03
2018-01-27T01:10:49.595Z,10.03
2018-01-27T01:11:13.630Z,10.03
2018-01-27T01:11:37.436Z,10.02
2018-01-27T01:12:00.905Z,10.02
2018-01-27T01:12:24.768Z,10.02
2018-01-27T01:12:48.530Z,10.02
2018-01-27T01:13:12.362Z,10.02
2018-01-27T01:13:35.861Z,10.02
2018-01-27T01:13:59.671Z,10.02
2018-01-27T01:14:23.450Z,10.02
2018-01-27T01:14:47.273Z,10.03
2018-01-27T01:15:11.311Z,10.02
2018-01-27T01:15:34.984Z,10.02
2018-01-27T01:15:58.411Z,10.02
2018-01-27T01:16:22.038Z,10.02
2018-01-27T01:16:45.595Z,10.02
2018-01-27T01:17:09.349Z,10.02
2018-01-27T01:17:33.119Z,10.02
2018-01-27T01:17:57.183Z,10.02
2018-01-27T01:18:21.290Z,10.01
2018-01-27T01:18:45.084Z,10.01
2018-01-27T01:19:09.100Z,10.01
2018-01-27T01:19:33.119Z,10.00
2018-01-27T01:19:57.164Z,10.00
2018-01-27T01:20:20.914Z,10.00
2018-01-27T01:20:44.707Z,10.00
2018-01-27T01:21:08.459Z,10.00
2018-01-27T01:21:32.193Z,10.00
2018-01-27T01:21:55.956Z,10.00
2018-01-27T01:22:19.692Z,10.00
2018-01-27T01:22:43.468Z,10.00
2018-01-27T01:23:07.213Z,9.99
2018-01-27T01:23:30.978Z,9.99
2018-01-27T01:23:54.787Z,10.00
2018-01-27T01:24:18.970Z,9.99
2018-01-27T01:24:42.723Z,9.99
2018-01-27T01:25:06.172Z,9.99
2018-01-27T01:25:29.952Z,9.99
2018-01-27T01:25:53.725Z,9.99
2018-01-27T01:26:17.788Z,9.99
2018-01-27T01:26:41.652Z,10.00
2018-01-27T01:27:05.181Z,10.00
2018-01-27T01:27:28.935Z,9.99
2018-01-27T01:27:52.726Z,9.99
2018-01-27T01:28:16.740Z,9.99
2018-01-27T01:28:40.816Z,9.99
2018-01-27T01:29:04.626Z,9.98
2018-01-27T01:29:28.660Z,9.99
2018-01-27T01:29:52.740Z,9.99
2018-01-27T01:30:16.499Z,9.99
2018-01-27T01:30:40.258Z,9.99
2018-01-27T01:31:04.001Z,9.98
2018-01-27T01:31:27.750Z,9.99
2018-01-27T01:31:51.515Z,9.99
2018-01-27T01:32:15.580Z,9.99
2018-01-27T01:32:39.634Z,9.99
2018-01-27T01:33:03.094Z,10.00
2018-01-27T01:33:26.863Z,10.00
2018-01-27T01:33:50.779Z,9.99
2018-01-27T01:34:14.510Z,9.99
2018-01-27T01:34:38.556Z,10.00
2018-01-27T01:35:02.055Z,10.00
2018-01-27T01:35:25.792Z,10.00
2018-01-27T01:35:49.572Z,9.99
2018-01-27T01:36:13.307Z,9.99
2018-01-27T01:36:36.904Z,9.99
2018-01-27T01:37:00.655Z,9.99
2018-01-27T01:37:24.395Z,9.99
2018-01-27T01:37:48.426Z,9.99
2018-01-27T01:38:11.873Z,9.99
2018-01-27T01:38:35.616Z,10.00
2018-01-27T01:38:59.053Z,9.99
2018-01-27T01:39:22.801Z,10.00
2018-01-27T01:39:46.234Z,9.99
2018-01-27T01:40:10.272Z,9.99
2018-01-27T01:40:34.287Z,9.99
2018-01-27T01:40:58.321Z,9.99
2018-01-27T01:41:22.100Z,9.98
2018-01-27T01:41:45.579Z,9.98
2018-01-27T01:42:09.143Z,9.98
2018-01-27T01:42:38.488Z,9.98
2018-01-27T01:43:07.569Z,9.98
2018-01-27T01:43:36.592Z,9.97
2018-01-27T01:44:05.641Z,9.97
2018-01-27T01:44:29.138Z,9.97
2018-01-27T01:44:53.031Z,9.97
2018-01-27T01:45:17.068Z,9.96
2018-01-27T01:45:41.099Z,9.95
2018-01-27T01:46:04.603Z,9.95
2018-01-27T01:46:28.323Z,9.95
2018-01-27T01:46:52.080Z,9.95
2018-01-27T01:47:15.835Z,9.94
2018-01-27T01:47:39.284Z,9.94
2018-01-27T01:48:03.029Z,9.94
2018-01-27T01:48:26.846Z,9.94
2018-01-27T01:48:50.883Z,9.94
2018-01-27T01:49:24.048Z,9.93
2018-01-27T01:49:47.799Z,9.93
2018-01-27T01:50:11.906Z,9.93
2018-01-27T01:50:35.674Z,9.92
2018-01-27T01:50:59.131Z,9.92
2018-01-27T01:51:22.887Z,9.92
2018-01-27T01:51:46.688Z,9.91
2018-01-27T01:52:10.748Z,9.91
2018-01-27T01:52:34.776Z,9.90
2018-01-27T01:52:58.586Z,9.90
2018-01-27T01:53:22.039Z,9.90
2018-01-27T01:53:45.779Z,9.89
2018-01-27T01:54:09.543Z,9.89
2018-01-27T01:54:33.099Z,9.88
2018-01-27T01:54:56.959Z,9.88
2018-01-27T01:55:20.740Z,9.88
2018-01-27T01:55:44.515Z,9.87
2018-01-27T01:56:07.874Z,9.87
2018-01-27T01:56:31.625Z,9.87
2018-01-27T01:56:55.435Z,9.86
2018-01-27T01:57:18.875Z,9.86
2018-01-27T01:57:42.623Z,9.86
2018-01-27T01:58:06.350Z,9.86
2018-01-27T01:58:29.802Z,9.86
2018-01-27T01:58:53.561Z,9.85
2018-01-27T01:59:17.405Z,9.85
2018-01-27T01:59:41.471Z,9.85
2018-01-27T02:00:05.283Z,9.84
2018-01-27T02:00:28.738Z,9.84
2018-01-27T02:00:52.497Z,9.84
2018-01-27T02:01:15.632Z,9.84
2018-01-27T02:01:39.392Z,9.83
2018-01-27T02:02:03.137Z,9.82
2018-01-27T02:02:26.963Z,9.83
2018-01-27T02:02:50.411Z,9.83
2018-01-27T02:03:14.155Z,9.82
2018-01-27T02:03:37.588Z,9.81
2018-01-27T02:04:01.316Z,9.82
2018-01-27T02:04:25.083Z,9.82
2018-01-27T02:04:48.583Z,9.82
2018-01-27T02:05:12.394Z,9.81
2018-01-27T02:05:36.542Z,9.81
2018-01-27T02:05:59.588Z,9.81
2018-01-27T02:06:23.342Z,9.80
2018-01-27T02:06:47.089Z,9.80
2018-01-27T02:07:11.072Z,9.80
2018-01-27T02:07:35.084Z,9.80
2018-01-27T02:07:59.118Z,9.81
2018-01-27T02:08:22.855Z,9.80
2018-01-27T02:08:46.592Z,9.81
2018-01-27T02:09:10.315Z,9.80
2018-01-27T02:09:34.056Z,9.81
2018-01-27T02:09:57.867Z,9.81
2018-01-27T02:10:21.303Z,9.81
2018-01-27T02:10:45.028Z,9.81
2018-01-27T02:11:08.774Z,9.82
2018-01-27T02:11:31.565Z,9.81
2018-01-27T02:11:55.296Z,9.81
2018-01-27T02:12:18.843Z,9.82
2018-01-27T02:12:42.874Z,9.83
2018-01-27T02:13:06.315Z,9.82
2018-01-27T02:13:30.065Z,9.82
2018-01-27T02:13:53.902Z,9.83
2018-01-27T02:14:17.650Z,9.83
2018-01-27T02:14:41.128Z,9.83
2018-01-27T02:15:04.545Z,9.84
2018-01-27T02:15:28.115Z,9.83
2018-01-27T02:15:52.026Z,9.84
2018-01-27T02:16:15.784Z,9.84
2018-01-27T02:16:38.831Z,9.84
2018-01-27T02:17:02.626Z,9.84
2018-01-27T02:17:26.644Z,9.85
2018-01-27T02:17:50.108Z,9.84
2018-01-27T02:18:13.974Z,9.84
2018-01-27T02:18:37.711Z,9.85
2018-01-27T02:19:01.456Z,9.85
2018-01-27T02:19:25.504Z,9.85
2018-01-27T02:19:49.552Z,9.85
2018-01-27T02:20:13.010Z,9.86
2018-01-27T02:20:36.757Z,9.86
2018-01-27T02:20:59.828Z,9.86
2018-01-27T02:21:23.575Z,9.86
2018-01-27T02:21:46.967Z,9.87
2018-01-27T02:22:10.337Z,9.87
2018-01-27T02:22:34.359Z,9.87
2018-01-27T02:22:58.390Z,9.87
2018-01-27T02:23:22.403Z,9.87
2018-01-27T02:23:46.144Z,9.88
2018-01-27T02:24:09.900Z,9.89
2018-01-27T02:24:33.648Z,9.88
2018-01-27T02:24:57.403Z,9.89
2018-01-27T02:25:20.519Z,9.89
2018-01-27T02:25:44.250Z,9.88
2018-01-27T02:26:08.260Z,9.89
2018-01-27T02:26:32.287Z,9.89
2018-01-27T02:26:56.028Z,9.90
2018-01-27T02:27:20.248Z,9.89
2018-01-27T02:27:43.823Z,9.89
2018-01-27T02:28:07.610Z,9.90
2018-01-27T02:28:31.348Z,9.89
2018-01-27T02:28:55.111Z,9.89
2018-01-27T02:29:19.155Z,9.89
2018-01-27T02:29:42.615Z,9.89
2018-01-27T02:30:06.354Z,9.89
2018-01-27T02:30:29.800Z,9.89
2018-01-27T02:30:53.544Z,9.89
2018-01-27T02:31:17.325Z,9.89
2018-01-27T02:31:41.116Z,9.89
2018-01-27T02:32:04.167Z,9.89
2018-01-27T02:32:27.930Z,9.88
2018-01-27T02:32:51.981Z,9.88
2018-01-27T02:33:15.101Z,9.88
2018-01-27T02:33:38.579Z,9.87
2018-01-27T02:34:02.516Z,9.87
2018-01-27T02:34:26.255Z,9.87
2018-01-27T02:34:49.996Z,9.86
2018-01-27T02:35:13.761Z,9.87
2018-01-27T02:35:37.496Z,9.86
2018-01-27T02:36:01.284Z,9.86
2018-01-27T02:36:25.022Z,9.85
2018-01-27T02:36:48.763Z,9.85
2018-01-27T02:37:12.811Z,9.84
2018-01-27T02:37:36.554Z,9.83
2018-01-27T02:38:00.287Z,9.83
2018-01-27T02:38:24.044Z,9.83
2018-01-27T02:38:47.804Z,9.83
2018-01-27T02:39:11.587Z,9.84
2018-01-27T02:39:35.672Z,9.83
2018-01-27T02:39:59.115Z,9.83
2018-01-27T02:40:22.944Z,9.84
2018-01-27T02:40:46.725Z,9.83
2018-01-27T02:41:10.269Z,9.83
2018-01-27T02:41:34.545Z,9.83
2018-01-27T02:41:58.571Z,9.83
2018-01-27T02:42:22.327Z,9.83
2018-01-27T02:42:46.084Z,9.83
2018-01-27T02:43:09.890Z,9.84
2018-01-27T02:43:33.655Z,9.84
2018-01-27T02:43:57.401Z,9.83
2018-01-27T02:44:20.744Z,9.83
2018-01-27T02:44:44.548Z,9.83
2018-01-27T02:45:08.300Z,9.83
2018-01-27T02:45:32.397Z,9.84
2018-01-27T02:45:56.184Z,9.83
2018-01-27T02:46:25.999Z,9.84
2018-01-27T02:46:51.973Z,9.84
2018-01-27T02:47:18.315Z,9.83
2018-01-27T02:47:42.227Z,9.83
2018-01-27T02:48:05.909Z,9.84
2018-01-27T02:48:29.711Z,9.84
2018-01-27T02:48:53.471Z,9.84
2018-01-27T02:49:17.241Z,9.83
2018-01-27T02:49:40.278Z,9.83
2018-01-27T02:50:03.688Z,9.83
2018-01-27T02:50:27.423Z,9.84
2018-01-27T02:50:51.183Z,9.83
2018-01-27T02:51:15.025Z,9.83
2018-01-27T02:51:38.527Z,9.83
2018-01-27T02:52:02.264Z,9.83
2018-01-27T02:52:26.050Z,9.83
2018-01-27T02:52:49.820Z,9.82
2018-01-27T02:53:13.268Z,9.82
2018-01-27T02:53:37.037Z,9.82
2018-01-27T02:54:00.876Z,9.82
2018-01-27T02:54:24.913Z,9.82
2018-01-27T02:54:48.356Z,9.82
2018-01-27T02:55:12.094Z,9.82
2018-01-27T02:55:35.828Z,9.82
2018-01-27T02:55:59.860Z,9.82
2018-01-27T02:56:23.453Z,9.82
2018-01-27T02:56:47.219Z,9.81
2018-01-27T02:57:10.954Z,9.82
2018-01-27T02:57:35.560Z,9.82
2018-01-27T02:57:59.288Z,9.82
2018-01-27T02:58:23.018Z,9.82
2018-01-27T02:58:46.711Z,9.82
2018-01-27T02:59:10.164Z,9.82
2018-01-27T02:59:33.952Z,9.83
2018-01-27T02:59:57.691Z,9.83
2018-01-27T03:00:20.821Z,9.83
2018-01-27T03:00:44.547Z,9.83
2018-01-27T03:01:08.568Z,9.83
2018-01-27T03:01:32.018Z,9.83
2018-01-27T03:01:55.837Z,9.83
2018-01-27T03:02:19.626Z,9.83
2018-01-27T03:02:43.423Z,9.83
2018-01-27T03:03:07.439Z,9.83
2018-01-27T03:03:31.483Z,9.83
2018-01-27T03:03:54.948Z,9.83
2018-01-27T03:04:18.729Z,9.83
2018-01-27T03:04:41.790Z,9.83
2018-01-27T03:05:05.542Z,9.83
2018-01-27T03:05:29.306Z,9.83
2018-01-27T03:05:53.338Z,9.83
2018-01-27T03:06:16.792Z,9.83
2018-01-27T03:06:40.585Z,9.84
2018-01-27T03:07:04.383Z,9.84
2018-01-27T03:07:28.131Z,9.83
2018-01-27T03:07:52.160Z,9.82
2018-01-27T03:08:16.201Z,9.83
2018-01-27T03:08:40.211Z,9.83
2018-01-27T03:09:03.617Z,9.83
2018-01-27T03:09:27.355Z,9.83
2018-01-27T03:09:51.091Z,9.82
2018-01-27T03:10:14.459Z,9.83
2018-01-27T03:10:38.223Z,9.83
2018-01-27T03:11:01.977Z,9.83
2018-01-27T03:11:26.000Z,9.83
2018-01-27T03:11:50.168Z,9.82
2018-01-27T03:12:13.923Z,9.82
2018-01-27T03:12:37.959Z,9.82
2018-01-27T03:13:02.008Z,9.82
2018-01-27T03:13:25.759Z,9.82
2018-01-27T03:13:49.281Z,9.81
2018-01-27T03:14:12.662Z,9.80
2018-01-27T03:14:36.398Z,9.80
2018-01-27T03:15:00.160Z,9.80
2018-01-27T03:15:23.895Z,9.80
2018-01-27T03:15:47.635Z,9.79
2018-01-27T03:16:11.103Z,9.79
2018-01-27T03:16:34.948Z,9.79
2018-01-27T03:16:58.700Z,9.78
2018-01-27T03:17:22.735Z,9.78
2018-01-27T03:17:46.183Z,9.78
2018-01-27T03:18:09.910Z,9.78
2018-01-27T03:18:33.656Z,9.78
2018-01-27T03:18:57.104Z,9.78
2018-01-27T03:19:20.943Z,9.78
2018-01-27T03:19:44.732Z,9.78
2018-01-27T03:20:08.485Z,9.78
2018-01-27T03:20:32.591Z,9.78
2018-01-27T03:20:56.339Z,9.78
2018-01-27T03:21:19.107Z,9.78
2018-01-27T03:21:42.886Z,9.78
2018-01-27T03:22:06.667Z,9.77
2018-01-27T03:22:30.446Z,9.77
2018-01-27T03:22:54.134Z,9.77
2018-01-27T03:23:17.860Z,9.77
2018-01-27T03:23:41.623Z,9.76
2018-01-27T03:24:05.057Z,9.76
2018-01-27T03:24:28.787Z,9.77
2018-01-27T03:24:52.507Z,9.76
2018-01-27T03:25:15.908Z,9.77
2018-01-27T03:25:39.687Z,9.77
2018-01-27T03:26:02.761Z,9.77
2018-01-27T03:26:26.545Z,9.77
2018-01-27T03:26:50.273Z,9.77
2018-01-27T03:27:14.056Z,9.77
2018-01-27T03:27:37.520Z,9.78
2018-01-27T03:28:01.326Z,9.78
2018-01-27T03:28:25.144Z,9.78
2018-01-27T03:28:49.157Z,9.78
2018-01-27T03:29:12.969Z,9.78
2018-01-27T03:29:37.017Z,9.78
2018-01-27T03:30:01.067Z,9.79
2018-01-27T03:30:24.540Z,9.79
2018-01-27T03:30:48.269Z,9.79
2018-01-27T03:31:11.320Z,9.78
2018-01-27T03:31:35.045Z,9.79
2018-01-27T03:31:58.893Z,9.78
2018-01-27T03:32:23.014Z,9.79
2018-01-27T03:32:46.776Z,9.78
2018-01-27T03:33:10.231Z,9.78
2018-01-27T03:33:33.983Z,9.78
2018-01-27T03:33:57.809Z,9.78
2018-01-27T03:34:22.136Z,9.78
2018-01-27T03:34:45.927Z,9.78
2018-01-27T03:35:09.679Z,9.78
2018-01-27T03:35:33.047Z,9.77
2018-01-27T03:35:56.775Z,9.77
2018-01-27T03:36:20.525Z,9.77
2018-01-27T03:36:44.323Z,9.77
2018-01-27T03:37:08.058Z,9.77
2018-01-27T03:37:31.823Z,9.76
2018-01-27T03:37:55.613Z,9.77
2018-01-27T03:38:22.618Z,9.76
2018-01-27T03:38:46.626Z,9.76
2018-01-27T03:39:10.038Z,9.76
2018-01-27T03:39:33.771Z,9.75
2018-01-27T03:39:57.547Z,9.75
2018-01-27T03:40:20.811Z,9.75
2018-01-27T03:40:44.575Z,9.74
2018-01-27T03:41:08.330Z,9.74
2018-01-27T03:41:31.830Z,9.73
2018-01-27T03:41:55.590Z,9.73
2018-01-27T03:42:19.321Z,9.72
2018-01-27T03:42:43.419Z,9.72
2018-01-27T03:43:07.176Z,9.71
2018-01-27T03:43:30.977Z,9.71
2018-01-27T03:43:54.453Z,9.70
2018-01-27T03:44:18.210Z,9.69
2018-01-27T03:44:42.241Z,9.68
2018-01-27T03:45:06.253Z,9.67
2018-01-27T03:45:30.051Z,9.66
2018-01-27T03:45:53.833Z,9.66
2018-01-27T03:46:17.612Z,9.65
2018-01-27T03:46:41.379Z,9.64
2018-01-27T03:47:05.115Z,9.63
2018-01-27T03:47:29.183Z,9.62
2018-01-27T03:47:52.972Z,9.62
2018-01-27T03:48:16.441Z,9.61
2018-01-27T03:48:40.179Z,9.60
2018-01-27T03:49:04.157Z,9.58
2018-01-27T03:49:27.899Z,9.58
2018-01-27T03:49:51.414Z,9.56
2018-01-27T03:50:15.151Z,9.55
2018-01-27T03:50:38.544Z,9.53
2018-01-27T03:51:02.305Z,9.52
2018-01-27T03:51:26.064Z,9.51
2018-01-27T03:51:49.810Z,9.50
2018-01-27T03:52:13.264Z,9.48
2018-01-27T03:52:37.028Z,9.47
2018-01-27T03:53:00.480Z,9.44
2018-01-27T03:53:24.219Z,9.42
2018-01-27T03:53:47.992Z,9.40
2018-01-27T03:54:11.798Z,9.38
2018-01-27T03:54:35.844Z,9.36
2018-01-27T03:54:59.309Z,9.34
2018-01-27T03:55:23.069Z,9.32
2018-01-27T03:55:46.876Z,9.30
2018-01-27T03:56:10.629Z,9.28
2018-01-27T03:56:34.113Z,9.26
2018-01-27T03:56:57.843Z,9.24
2018-01-27T03:57:21.658Z,9.22
2018-01-27T03:57:45.685Z,9.20
2018-01-27T03:58:09.731Z,9.18
2018-01-27T03:58:33.499Z,9.15
2018-01-27T03:58:56.950Z,9.14
2018-01-27T03:59:20.691Z,9.12
2018-01-27T03:59:44.511Z,9.10
2018-01-27T04:00:08.598Z,9.08
2018-01-27T04:00:32.613Z,9.06
2018-01-27T04:00:56.354Z,9.04
2018-01-27T04:01:20.091Z,9.03
2018-01-27T04:01:43.900Z,9.01
2018-01-27T04:02:07.686Z,8.99
2018-01-27T04:02:31.511Z,8.98
2018-01-27T04:02:55.263Z,8.96
2018-01-27T04:03:19.025Z,8.95
2018-01-27T04:03:42.772Z,8.93
2018-01-27T04:04:06.581Z,8.91
2018-01-27T04:04:30.006Z,8.89
2018-01-27T04:04:53.768Z,8.87
2018-01-27T04:05:17.567Z,8.86
2018-01-27T04:05:41.366Z,8.85
2018-01-27T04:06:05.105Z,8.84
2018-01-27T04:06:28.856Z,8.82
2018-01-27T04:06:52.636Z,8.81
2018-01-27T04:07:16.395Z,8.81
2018-01-27T04:07:40.177Z,8.79
2018-01-27T04:08:03.939Z,8.78
2018-01-27T04:08:27.810Z,8.78
2018-01-27T04:08:51.258Z,8.76
2018-01-27T04:09:15.005Z,8.75
2018-01-27T04:09:39.027Z,8.75
2018-01-27T04:10:03.063Z,8.74
2018-01-27T04:10:27.196Z,8.73
2018-01-27T04:10:51.075Z,8.72
2018-01-27T04:11:14.850Z,8.71
2018-01-27T04:11:38.297Z,8.70
2018-01-27T04:12:02.057Z,8.70
2018-01-27T04:12:25.899Z,8.69
2018-01-27T04:12:49.917Z,8.68
2018-01-27T04:13:13.261Z,8.68
2018-01-27T04:13:37.189Z,8.68
2018-01-27T04:14:00.972Z,8.67
2018-01-27T04:14:24.713Z,8.66
2018-01-27T04:14:47.840Z,8.64
2018-01-27T04:15:11.862Z,8.64
2018-01-27T04:15:35.343Z,8.62
2018-01-27T04:15:59.078Z,8.62
2018-01-27T04:16:22.860Z,8.62
2018-01-27T04:16:46.629Z,8.61
2018-01-27T04:17:10.075Z,8.61
2018-01-27T04:17:33.181Z,8.60
2018-01-27T04:17:56.930Z,8.60
2018-01-27T04:18:20.760Z,8.59
2018-01-27T04:18:44.599Z,8.58
2018-01-27T04:19:08.624Z,8.58
2018-01-27T04:19:32.640Z,8.58
2018-01-27T04:19:56.093Z,8.58
2018-01-27T04:20:19.833Z,8.57
2018-01-27T04:20:43.615Z,8.57
2018-01-27T04:21:07.379Z,8.57
2018-01-27T04:21:30.974Z,8.57
2018-01-27T04:21:54.748Z,8.57
2018-01-27T04:22:18.529Z,8.58
2018-01-27T04:22:42.291Z,8.59
2018-01-27T04:23:06.026Z,8.59
2018-01-27T04:23:29.769Z,8.60
2018-01-27T04:23:53.743Z,8.61
2018-01-27T04:24:17.483Z,8.62
2018-01-27T04:24:41.223Z,8.63
2018-01-27T04:25:04.666Z,8.64
2018-01-27T04:25:28.453Z,8.65
2018-01-27T04:25:52.195Z,8.67
2018-01-27T04:26:15.649Z,8.68
2018-01-27T04:26:39.441Z,8.70
2018-01-27T04:27:03.172Z,8.71
2018-01-27T04:27:27.283Z,8.72
2018-01-27T04:27:50.733Z,8.74
2018-01-27T04:28:14.515Z,8.74
2018-01-27T04:28:38.243Z,8.76
2018-01-27T04:29:02.027Z,8.77
2018-01-27T04:29:25.551Z,8.78
2018-01-27T04:29:49.280Z,8.80
2018-01-27T04:30:13.064Z,8.81
2018-01-27T04:30:37.107Z,8.82
2018-01-27T04:31:00.568Z,8.83
2018-01-27T04:31:24.329Z,8.85
2018-01-27T04:31:48.142Z,8.85
2018-01-27T04:32:11.941Z,8.86
2018-01-27T04:32:35.738Z,8.87
2018-01-27T04:32:59.485Z,8.88
2018-01-27T04:33:23.317Z,8.90
2018-01-27T04:33:47.063Z,8.92
2018-01-27T04:34:10.983Z,8.93
2018-01-27T04:34:34.928Z,8.94
2018-01-27T04:34:58.695Z,8.95
2018-01-27T04:35:22.147Z,8.95
2018-01-27T04:35:46.002Z,8.97
2018-01-27T04:36:09.771Z,8.97
2018-01-27T04:36:33.856Z,8.98
2018-01-27T04:36:57.607Z,8.98
2018-01-27T04:37:21.090Z,8.99
2018-01-27T04:37:44.882Z,8.99
2018-01-27T04:38:07.923Z,9.00
2018-01-27T04:38:31.779Z,9.00
2018-01-27T04:38:55.574Z,9.01
2018-01-27T04:39:19.667Z,9.02
2018-01-27T04:39:43.701Z,9.02
2018-01-27T04:40:07.462Z,9.02
2018-01-27T04:40:30.943Z,9.03
2018-01-27T04:40:54.359Z,9.03
2018-01-27T04:41:18.109Z,9.03
2018-01-27T04:41:41.543Z,9.03
2018-01-27T04:42:05.566Z,9.04
2018-01-27T04:42:29.039Z,9.04
2018-01-27T04:42:52.424Z,9.04
2018-01-27T04:43:15.771Z,9.05
2018-01-27T04:43:39.503Z,9.05
2018-01-27T04:44:03.158Z,9.05
2018-01-27T04:44:26.975Z,9.05
2018-01-27T04:44:50.783Z,9.05
2018-01-27T04:45:14.354Z,9.05
2018-01-27T04:45:38.440Z,9.05
2018-01-27T04:46:02.219Z,9.05
2018-01-27T04:46:26.112Z,9.04
2018-01-27T04:46:49.555Z,9.04
2018-01-27T04:47:13.339Z,9.04
2018-01-27T04:47:37.082Z,9.04
2018-01-27T04:48:00.556Z,9.03
2018-01-27T04:48:24.342Z,9.03
2018-01-27T04:48:48.126Z,9.04
2018-01-27T04:49:12.150Z,9.02
2018-01-27T04:49:36.216Z,9.02
2018-01-27T04:49:59.971Z,9.02
2018-01-27T04:50:23.503Z,9.02
2018-01-27T04:50:47.236Z,9.01
2018-01-27T04:51:11.038Z,9.01
2018-01-27T04:51:35.110Z,9.00
2018-01-27T04:51:58.897Z,8.99
2018-01-27T04:52:22.936Z,8.99
2018-01-27T04:52:47.047Z,8.99
2018-01-27T04:53:10.828Z,8.98
2018-01-27T04:53:34.281Z,8.97
2018-01-27T04:53:58.055Z,8.96
2018-01-27T04:54:21.890Z,8.95
2018-01-27T04:54:45.950Z,8.95
2018-01-27T04:55:09.726Z,8.94
2018-01-27T04:55:33.167Z,8.93
2018-01-27T04:55:56.930Z,8.92
2018-01-27T04:56:20.668Z,8.91
2018-01-27T04:56:44.143Z,8.90
2018-01-27T04:57:07.876Z,8.89
2018-01-27T04:57:31.690Z,8.89
2018-01-27T04:57:55.726Z,8.88
2018-01-27T04:58:19.760Z,8.88
2018-01-27T04:58:43.503Z,8.87
2018-01-27T04:59:07.254Z,8.86
2018-01-27T04:59:31.032Z,8.85
2018-01-27T04:59:54.804Z,8.84
2018-01-27T05:00:18.571Z,8.84
2018-01-27T05:00:42.654Z,8.83
2018-01-27T05:01:06.416Z,8.82
2018-01-27T05:01:29.902Z,8.81
2018-01-27T05:01:53.645Z,8.80
2018-01-27T05:02:17.607Z,8.78
2018-01-27T05:02:41.436Z,8.78
2018-01-27T05:03:05.034Z,8.77
2018-01-27T05:03:28.771Z,8.76
2018-01-27T05:03:52.516Z,8.75
2018-01-27T05:04:16.246Z,8.74
2018-01-27T05:04:39.732Z,8.73
2018-01-27T05:05:03.633Z,8.73
2018-01-27T05:05:27.503Z,8.72
2018-01-27T05:05:51.287Z,8.71
2018-01-27T05:06:15.324Z,8.70
2018-01-27T05:06:39.104Z,8.69
2018-01-27T05:07:02.559Z,8.68
2018-01-27T05:07:26.319Z,8.67
2018-01-27T05:07:50.181Z,8.67
2018-01-27T05:08:14.241Z,8.66
2018-01-27T05:08:38.031Z,8.65
2018-01-27T05:09:02.062Z,8.64
2018-01-27T05:09:26.090Z,8.63
2018-01-27T05:09:50.119Z,8.63
2018-01-27T05:10:13.668Z,8.63
2018-01-27T05:10:37.444Z,8.62
2018-01-27T05:11:01.230Z,8.63
2018-01-27T05:11:24.993Z,8.62
2018-01-27T05:11:49.078Z,8.63
2018-01-27T05:12:12.817Z,8.63
2018-01-27T05:12:36.312Z,8.63
2018-01-27T05:13:00.074Z,8.63
2018-01-27T05:13:23.831Z,8.64
2018-01-27T05:13:47.929Z,8.64
2018-01-27T05:14:11.679Z,8.65